createdAt,value
2022-10-17T00:02:01.094Z,55.58
2022-10-17T00:07:07.124Z,55.61
2022-10-17T00:09:40.118Z,55.61
2022-10-17T00:12:16.042Z,55.62
2022-10-17T00:14:49.021Z,55.72
2022-10-17T00:17:22.134Z,55.63
2022-10-17T00:19:55.024Z,55.79
2022-10-17T00:22:28.104Z,55.63
2022-10-17T00:25:01.139Z,55.64
2022-10-17T00:27:34.149Z,55.72
2022-10-17T00:30:07.117Z,55.75
2022-10-17T00:32:40.158Z,55.71
2022-10-17T00:35:13.060Z,55.75
2022-10-17T00:37:46.159Z,55.67
2022-10-17T00:40:19.060Z,55.73
2022-10-17T00:42:52.188Z,55.75
2022-10-17T00:45:25.292Z,55.71
2022-10-17T00:47:59.144Z,55.79
2022-10-17T00:50:32.086Z,55.84
2022-10-17T00:53:05.223Z,55.76
2022-10-17T00:55:38.119Z,55.85
2022-10-17T00:58:11.142Z,55.88
2022-10-17T01:00:43.837Z,55.80
2022-10-17T01:03:17.096Z,55.86
2022-10-17T01:05:50.132Z,55.87
2022-10-17T01:08:24.203Z,55.88
2022-10-17T01:10:57.127Z,55.91
2022-10-17T01:13:30.190Z,55.89
2022-10-17T01:16:03.094Z,55.89
2022-10-17T01:18:36.172Z,55.81
2022-10-17T01:21:09.150Z,55.92
2022-10-17T01:23:42.098Z,55.89
2022-10-17T01:26:15.133Z,55.92
2022-10-17T01:28:48.158Z,55.85
2022-10-17T01:31:21.400Z,55.85
2022-10-17T01:33:55.158Z,55.91
2022-10-17T01:36:28.238Z,55.86
2022-10-17T01:39:01.185Z,55.97
2022-10-17T01:41:34.247Z,55.89
2022-10-17T01:44:07.211Z,55.93
2022-10-17T01:46:40.215Z,55.96
2022-10-17T01:49:13.181Z,55.92
2022-10-17T01:51:46.299Z,56.01
2022-10-17T01:54:19.304Z,56.00
2022-10-17T01:56:52.295Z,56.01
2022-10-17T01:59:25.297Z,56.01
2022-10-17T02:01:58.199Z,56.05
2022-10-17T02:04:35.035Z,56.04
2022-10-17T02:07:08.237Z,56.20
2022-10-17T02:09:41.268Z,56.14
2022-10-17T02:12:14.201Z,56.18
2022-10-17T02:14:47.207Z,56.27
2022-10-17T02:17:20.185Z,56.27
2022-10-17T02:19:53.320Z,56.18
2022-10-17T02:22:26.296Z,56.27
2022-10-17T02:24:59.317Z,56.34
2022-10-17T02:27:32.279Z,56.30
2022-10-17T02:30:05.308Z,56.23
2022-10-17T02:32:38.294Z,56.28
2022-10-17T02:35:11.280Z,56.36
2022-10-17T02:37:44.250Z,56.35
2022-10-17T02:40:16.977Z,56.35
2022-10-17T02:42:50.238Z,56.39
2022-10-17T02:45:23.301Z,56.32
2022-10-17T02:47:56.230Z,56.37
2022-10-17T02:53:02.389Z,56.33
2022-10-17T02:55:35.302Z,56.36
2022-10-17T02:58:08.317Z,56.31
2022-10-17T03:00:41.115Z,56.36
2022-10-17T03:03:14.325Z,56.35
2022-10-17T03:05:47.294Z,56.29
2022-10-17T03:08:20.408Z,56.33
2022-10-17T03:10:53.313Z,56.31
2022-10-17T03:13:26.379Z,56.35
2022-10-17T03:15:59.302Z,56.36
2022-10-17T03:18:32.369Z,56.31
2022-10-17T03:21:05.398Z,56.33
2022-10-17T03:23:38.287Z,56.30
2022-10-17T03:26:11.415Z,56.24
2022-10-17T03:28:50.642Z,56.27
2022-10-17T03:31:20.368Z,56.22
2022-10-17T03:33:53.314Z,56.30
2022-10-17T03:36:26.425Z,56.15
2022-10-17T03:38:59.394Z,56.19
2022-10-17T03:41:32.061Z,56.19
2022-10-17T03:44:05.151Z,56.13
2022-10-17T03:46:38.352Z,56.21
2022-10-17T03:49:11.350Z,56.18
2022-10-17T03:51:44.183Z,56.14
2022-10-17T03:54:17.074Z,56.17
2022-10-17T03:56:50.281Z,56.22
2022-10-17T03:59:23.312Z,56.15
2022-10-17T04:01:56.142Z,56.11
2022-10-17T04:04:29.279Z,56.15
2022-10-17T04:07:02.259Z,56.16
2022-10-17T04:09:35.264Z,56.12
2022-10-17T04:12:08.407Z,56.18
2022-10-17T04:14:41.314Z,56.19
2022-10-17T04:17:28.330Z,56.17
2022-10-17T04:20:01.094Z,56.23
2022-10-17T04:22:34.384Z,56.26
2022-10-17T04:25:07.506Z,56.25
2022-10-17T04:27:40.411Z,56.23
2022-10-17T04:30:13.465Z,56.27
2022-10-17T04:32:46.468Z,56.29
2022-10-17T04:35:19.482Z,56.27
2022-10-17T04:37:52.250Z,56.28
2022-10-17T04:40:25.459Z,56.26
2022-10-17T04:42:58.218Z,56.30
2022-10-17T04:45:32.536Z,56.23
2022-10-17T04:48:05.458Z,56.24
2022-10-17T04:50:38.504Z,56.28
2022-10-17T04:53:11.406Z,56.24
2022-10-17T04:55:46.471Z,56.25
2022-10-17T04:58:19.416Z,56.28
2022-10-17T05:00:52.547Z,56.28
2022-10-17T05:03:25.537Z,56.30
2022-10-17T05:05:58.441Z,56.30
2022-10-17T05:08:31.512Z,56.31
2022-10-17T05:11:04.525Z,56.30
2022-10-17T05:13:37.605Z,56.25
2022-10-17T05:16:10.523Z,56.25
2022-10-17T05:18:43.303Z,56.24
2022-10-17T05:21:16.555Z,56.30
2022-10-17T05:23:49.579Z,56.22
2022-10-17T05:26:22.573Z,56.23
2022-10-17T05:28:55.692Z,56.26
2022-10-17T05:31:28.479Z,56.31
2022-10-17T05:34:01.497Z,56.24
2022-10-17T05:36:34.463Z,56.24
2022-10-17T05:39:07.400Z,56.28
2022-10-17T05:41:40.558Z,56.23
2022-10-17T05:44:13.561Z,56.24
2022-10-17T05:46:46.627Z,56.22
2022-10-17T05:49:32.626Z,56.17
2022-10-17T05:51:52.648Z,56.20
2022-10-17T05:54:25.589Z,56.20
2022-10-17T05:56:58.528Z,56.27
2022-10-17T05:59:45.571Z,56.26
2022-10-17T06:02:18.631Z,56.05
2022-10-17T06:04:51.565Z,55.05
2022-10-17T06:07:24.572Z,54.79
2022-10-17T06:09:57.395Z,54.84
2022-10-17T06:12:30.995Z,54.84
2022-10-17T06:15:03.664Z,54.90
2022-10-17T06:17:36.644Z,54.79
2022-10-17T06:20:09.607Z,54.88
2022-10-17T06:22:42.659Z,54.92
2022-10-17T06:25:15.622Z,55.17
2022-10-17T06:27:48.665Z,55.25
2022-10-17T06:30:21.619Z,55.38
2022-10-17T06:32:54.672Z,55.43
2022-10-17T06:35:27.562Z,55.47
2022-10-17T06:38:00.560Z,55.56
2022-10-17T06:40:47.627Z,55.68
2022-10-17T06:43:21.416Z,55.59
2022-10-17T06:45:53.678Z,55.59
2022-10-17T06:48:26.698Z,55.60
2022-10-17T06:50:59.714Z,55.65
2022-10-17T06:53:32.624Z,55.65
2022-10-17T06:56:05.729Z,55.65
2022-10-17T06:58:38.646Z,55.62
2022-10-17T07:01:11.830Z,55.70
2022-10-17T07:03:44.682Z,55.68
2022-10-17T07:06:17.630Z,55.68
2022-10-17T07:08:50.526Z,55.67
2022-10-17T07:11:23.669Z,55.74
2022-10-17T07:13:56.747Z,55.72
2022-10-17T07:16:29.728Z,55.70
2022-10-17T07:19:02.630Z,55.69
2022-10-17T07:21:38.932Z,55.71
2022-10-17T07:24:08.724Z,55.66
2022-10-17T07:26:41.763Z,55.68
2022-10-17T07:29:14.655Z,55.65
2022-10-17T07:31:47.663Z,55.68
2022-10-17T07:34:20.523Z,55.69
2022-10-17T07:36:53.774Z,55.69
2022-10-17T07:39:26.754Z,55.65
2022-10-17T07:41:59.709Z,55.65
2022-10-17T07:44:32.748Z,55.58
2022-10-17T07:47:05.743Z,55.61
2022-10-17T07:49:38.787Z,55.57
2022-10-17T07:52:11.701Z,55.60
2022-10-17T07:54:44.675Z,55.57
2022-10-17T07:57:17.672Z,55.51
2022-10-17T07:59:50.726Z,55.59
2022-10-17T08:02:23.787Z,55.50
2022-10-17T08:04:56.566Z,55.44
2022-10-17T08:07:29.631Z,55.44
2022-10-17T08:10:02.836Z,55.41
2022-10-17T08:12:35.555Z,55.42
2022-10-17T08:15:08.587Z,55.34
2022-10-17T08:17:41.598Z,55.39
2022-10-17T08:20:14.729Z,55.33
2022-10-17T08:22:47.808Z,55.29
2022-10-17T08:25:20.787Z,55.31
2022-10-17T08:27:53.873Z,55.25
2022-10-17T08:30:26.752Z,55.24
2022-10-17T08:32:59.835Z,55.27
2022-10-17T08:35:32.788Z,55.22
2022-10-17T08:38:05.827Z,55.28
2022-10-17T08:40:38.490Z,55.26
2022-10-17T08:43:11.774Z,55.17
2022-10-17T08:45:44.838Z,55.20
2022-10-17T08:48:17.844Z,55.25
2022-10-17T08:50:50.877Z,55.21
2022-10-17T08:53:23.885Z,55.21
2022-10-17T08:55:56.814Z,55.21
2022-10-17T08:58:29.907Z,55.18
2022-10-17T09:01:02.868Z,55.27
2022-10-17T09:03:35.847Z,55.29
2022-10-17T09:06:08.822Z,55.21
2022-10-17T09:08:41.891Z,55.26
2022-10-17T09:11:14.880Z,55.24
2022-10-17T09:13:47.791Z,55.20
2022-10-17T09:16:20.907Z,55.18
2022-10-17T09:18:53.856Z,55.24
2022-10-17T09:21:26.792Z,55.23
2022-10-17T09:24:08.966Z,55.21
2022-10-17T09:26:32.834Z,55.23
2022-10-17T09:29:06.081Z,55.22
2022-10-17T09:31:39.852Z,55.22
2022-10-17T09:34:21.093Z,55.26
2022-10-17T09:36:52.902Z,55.28
2022-10-17T09:39:25.869Z,55.34
2022-10-17T09:41:58.950Z,55.37
2022-10-17T09:44:31.859Z,55.40
2022-10-17T09:47:04.848Z,55.33
2022-10-17T09:49:37.934Z,55.33
2022-10-17T09:52:11.054Z,55.43
2022-10-17T09:54:44.901Z,55.33
2022-10-17T09:57:17.846Z,55.27
2022-10-17T09:59:50.926Z,55.34
2022-10-17T10:02:23.986Z,55.30
2022-10-17T10:05:04.272Z,55.17
2022-10-17T10:07:30.039Z,54.54
2022-10-17T10:10:02.913Z,54.49
2022-10-17T10:12:35.858Z,54.30
2022-10-17T10:15:08.899Z,54.22
2022-10-17T10:17:41.914Z,54.25
2022-10-17T10:20:14.889Z,54.18
2022-10-17T10:22:47.615Z,54.18
2022-10-17T10:25:23.857Z,54.03
2022-10-17T10:27:59.355Z,54.00
2022-10-17T10:30:29.953Z,53.98
2022-10-17T10:33:02.683Z,54.08
2022-10-17T10:35:36.021Z,53.93
2022-10-17T10:38:08.631Z,53.75
2022-10-17T10:40:41.833Z,53.70
2022-10-17T10:43:28.544Z,53.31
2022-10-17T10:46:01.927Z,53.32
2022-10-17T10:48:35.063Z,53.12
2022-10-17T10:51:08.084Z,53.26
2022-10-17T10:53:40.993Z,53.36
2022-10-17T10:56:13.936Z,53.61
2022-10-17T10:58:47.072Z,53.54
2022-10-17T11:01:20.030Z,53.61
2022-10-17T11:03:52.950Z,53.69
2022-10-17T11:06:26.029Z,53.69
2022-10-17T11:08:58.963Z,53.81
2022-10-17T11:11:31.964Z,53.80
2022-10-17T11:14:04.998Z,53.86
2022-10-17T11:16:37.947Z,53.96
2022-10-17T11:19:10.690Z,53.97
2022-10-17T11:21:44.098Z,54.01
2022-10-17T11:24:16.992Z,54.06
2022-10-17T11:26:50.065Z,54.06
2022-10-17T11:29:23.008Z,54.09
2022-10-17T11:31:56.014Z,54.14
2022-10-17T11:34:29.107Z,54.20
2022-10-17T11:37:02.003Z,54.21
2022-10-17T11:39:35.164Z,54.25
2022-10-17T11:42:08.031Z,54.27
2022-10-17T11:44:41.002Z,54.28
2022-10-17T11:47:15.127Z,54.29
2022-10-17T11:49:50.829Z,54.34
2022-10-17T11:52:37.768Z,54.30
2022-10-17T11:54:54.044Z,54.40
2022-10-17T11:57:27.133Z,54.45
2022-10-17T12:00:00.168Z,54.48
2022-10-17T12:02:33.122Z,54.58
2022-10-17T12:05:06.093Z,54.56
2022-10-17T12:07:39.237Z,54.52
2022-10-17T12:10:12.088Z,54.54
2022-10-17T12:12:45.191Z,54.59
2022-10-17T12:15:18.066Z,54.54
2022-10-17T12:17:51.115Z,54.61
2022-10-17T12:20:24.138Z,54.67
2022-10-17T12:22:57.275Z,54.71
2022-10-17T12:25:30.362Z,54.72
2022-10-17T12:28:03.182Z,54.72
2022-10-17T12:30:35.955Z,54.77
2022-10-17T12:33:09.111Z,54.81
2022-10-17T12:35:42.074Z,54.78
2022-10-17T12:38:14.978Z,54.85
2022-10-17T12:40:49.190Z,54.87
2022-10-17T12:43:20.820Z,54.86
2022-10-17T12:45:54.117Z,54.92
2022-10-17T12:48:27.161Z,54.91
2022-10-17T12:51:17.703Z,54.80
2022-10-17T12:53:33.230Z,54.78
2022-10-17T12:56:06.149Z,54.68
2022-10-17T12:58:53.060Z,54.63
2022-10-17T13:01:26.084Z,54.64
2022-10-17T13:04:05.177Z,54.64
2022-10-17T13:06:38.133Z,54.63
2022-10-17T13:09:11.168Z,54.59
2022-10-17T13:11:44.174Z,54.59
2022-10-17T13:14:17.259Z,54.58
2022-10-17T13:16:50.224Z,54.61
2022-10-17T13:19:23.182Z,54.52
2022-10-17T13:21:56.267Z,54.49
2022-10-17T13:24:29.202Z,53.93
2022-10-17T13:27:02.141Z,54.14
2022-10-17T13:29:35.220Z,54.24
2022-10-17T13:32:08.184Z,54.29
2022-10-17T13:34:41.273Z,54.29
2022-10-17T13:37:14.239Z,54.33
2022-10-17T13:39:56.582Z,54.33
2022-10-17T13:42:20.257Z,54.35
2022-10-17T13:44:53.204Z,54.33
2022-10-17T13:47:26.165Z,54.37
2022-10-17T13:49:59.061Z,54.46
2022-10-17T13:52:32.477Z,54.51
2022-10-17T13:55:04.960Z,54.49
2022-10-17T13:57:37.964Z,54.43
2022-10-17T14:00:11.772Z,54.55
2022-10-17T14:02:44.183Z,54.60
2022-10-17T14:05:18.699Z,54.55
2022-10-17T14:08:17.859Z,54.53
2022-10-17T14:10:23.142Z,54.49
2022-10-17T14:12:56.095Z,54.55
2022-10-17T14:15:29.247Z,54.60
2022-10-17T14:18:06.699Z,54.62
2022-10-17T14:21:19.383Z,54.58
2022-10-17T14:23:22.473Z,54.58
2022-10-17T14:25:41.161Z,54.52
2022-10-17T14:28:14.210Z,54.53
2022-10-17T14:31:02.454Z,54.59
2022-10-17T14:33:19.969Z,54.58
2022-10-17T14:35:53.330Z,54.57
2022-10-17T14:38:26.103Z,54.59
2022-10-17T14:41:14.303Z,54.63
2022-10-17T14:43:32.176Z,54.64
2022-10-17T14:46:04.992Z,54.68
2022-10-17T14:48:38.061Z,54.73
2022-10-17T14:51:11.015Z,54.84
2022-10-17T14:53:44.200Z,54.78
2022-10-17T14:56:17.303Z,54.84
2022-10-17T14:58:50.377Z,54.82
2022-10-17T15:01:23.164Z,54.83
2022-10-17T15:03:56.147Z,54.86
2022-10-17T15:06:29.430Z,54.92
2022-10-17T15:09:02.320Z,54.92
2022-10-17T15:11:35.386Z,54.91
2022-10-17T15:14:08.367Z,54.93
2022-10-17T15:16:41.417Z,54.93
2022-10-17T15:19:14.313Z,54.98
2022-10-17T15:21:47.530Z,54.99
2022-10-17T15:24:20.317Z,54.96
2022-10-17T15:29:26.358Z,54.79
2022-10-17T15:32:02.801Z,54.72
2022-10-17T15:34:36.420Z,54.67
2022-10-17T15:37:09.104Z,54.65
2022-10-17T15:39:42.343Z,54.57
2022-10-17T15:42:15.121Z,54.62
2022-10-17T15:44:48.146Z,54.60
2022-10-17T15:47:21.467Z,54.59
2022-10-17T15:49:54.236Z,54.57
2022-10-17T15:52:27.204Z,54.57
2022-10-17T15:55:04.133Z,54.51
2022-10-17T15:57:33.609Z,54.53
2022-10-17T16:00:06.364Z,54.50
2022-10-17T16:02:39.103Z,54.48
2022-10-17T16:05:12.109Z,54.51
2022-10-17T16:07:45.385Z,54.61
2022-10-17T16:10:18.447Z,54.67
2022-10-17T16:12:51.436Z,54.67
2022-10-17T16:15:24.164Z,54.73
2022-10-17T16:17:57.899Z,54.73
2022-10-17T16:20:30.123Z,54.75
2022-10-17T16:23:03.419Z,54.81
2022-10-17T16:25:36.407Z,54.80
2022-10-17T16:28:09.409Z,54.83
2022-10-17T16:30:42.272Z,54.85
2022-10-17T16:33:15.424Z,54.86
2022-10-17T16:35:48.499Z,54.87
2022-10-17T16:38:21.450Z,54.88
2022-10-17T16:40:54.448Z,54.86
2022-10-17T16:43:27.456Z,54.89
2022-10-17T16:46:00.442Z,54.89
2022-10-17T16:51:12.198Z,54.93
2022-10-17T16:53:45.195Z,54.93
2022-10-17T16:56:18.164Z,54.91
2022-10-17T16:58:51.355Z,54.94
2022-10-17T17:01:24.232Z,54.93
2022-10-17T17:03:57.527Z,54.94
2022-10-17T17:06:30.511Z,54.99
2022-10-17T17:09:03.457Z,54.95
2022-10-17T17:11:36.221Z,55.02
2022-10-17T17:14:09.503Z,55.08
2022-10-17T17:16:42.561Z,55.06
2022-10-17T17:19:15.511Z,55.07
2022-10-17T17:21:48.311Z,55.15
2022-10-17T17:24:21.237Z,55.10
2022-10-17T17:26:54.333Z,55.17
2022-10-17T17:29:27.582Z,55.23
2022-10-17T17:32:00.346Z,55.26
2022-10-17T17:34:33.304Z,54.92
2022-10-17T17:37:06.505Z,54.55
2022-10-17T17:39:39.573Z,54.77
2022-10-17T17:42:12.533Z,54.91
2022-10-17T17:44:45.343Z,54.93
2022-10-17T17:47:18.234Z,54.92
2022-10-17T17:49:51.352Z,54.95
2022-10-17T17:52:24.688Z,54.97
2022-10-17T17:54:58.319Z,54.97
2022-10-17T17:57:31.345Z,54.96
2022-10-17T18:00:04.273Z,54.97
2022-10-17T18:02:40.775Z,54.98
2022-10-17T18:05:10.555Z,54.98
2022-10-17T18:07:43.308Z,54.99
2022-10-17T18:10:16.544Z,54.98
2022-10-17T18:12:49.371Z,55.00
2022-10-17T18:15:22.383Z,54.98
2022-10-17T18:17:55.556Z,54.99
2022-10-17T18:20:28.343Z,54.99
2022-10-17T18:23:04.097Z,55.00
2022-10-17T18:25:34.399Z,55.03
2022-10-17T18:28:07.356Z,54.98
2022-10-17T18:30:40.325Z,54.97
2022-10-17T18:33:13.325Z,55.01
2022-10-17T18:35:46.315Z,54.96
2022-10-17T18:38:33.225Z,54.96
2022-10-17T18:41:06.458Z,54.96
2022-10-17T18:43:39.736Z,54.94
2022-10-17T18:46:14.715Z,54.91
2022-10-17T18:48:45.686Z,54.92
2022-10-17T18:51:18.855Z,54.94
2022-10-17T18:53:52.373Z,54.92
2022-10-17T18:56:25.746Z,54.96
2022-10-17T18:58:58.514Z,54.94
2022-10-17T19:01:31.620Z,54.94
2022-10-17T19:04:04.440Z,54.91
2022-10-17T19:06:37.390Z,54.93
2022-10-17T19:09:16.264Z,54.94
2022-10-17T19:11:49.373Z,54.92
2022-10-17T19:14:22.559Z,54.57
2022-10-17T19:16:55.651Z,54.59
2022-10-17T19:19:34.388Z,54.55
2022-10-17T19:22:07.481Z,54.57
2022-10-17T19:24:40.493Z,54.62
2022-10-17T19:27:13.404Z,54.65
2022-10-17T19:29:46.732Z,54.69
2022-10-17T19:32:22.218Z,54.69
2022-10-17T19:34:52.836Z,54.70
2022-10-17T19:37:25.734Z,54.73
2022-10-17T19:39:58.694Z,54.72
2022-10-17T19:42:31.781Z,54.73
2022-10-17T19:45:04.425Z,54.70
2022-10-17T19:47:37.581Z,54.72
2022-10-17T19:50:10.712Z,54.73
2022-10-17T19:52:43.594Z,54.77
2022-10-17T19:55:16.733Z,54.79
2022-10-17T19:57:49.718Z,54.84
2022-10-17T20:00:25.460Z,54.86
2022-10-17T20:02:58.603Z,54.88
2022-10-17T20:05:31.797Z,54.86
2022-10-17T20:08:04.565Z,54.86
2022-10-17T20:10:37.427Z,54.86
2022-10-17T20:13:10.468Z,54.86
2022-10-17T20:15:43.449Z,54.89
2022-10-17T20:18:16.744Z,54.90
2022-10-17T20:20:49.496Z,54.85
2022-10-17T20:23:22.736Z,54.91
2022-10-17T20:26:06.702Z,54.91
2022-10-17T20:28:28.888Z,54.91
2022-10-17T20:31:01.562Z,55.00
2022-10-17T20:33:34.778Z,55.05
2022-10-17T20:36:07.810Z,55.05
2022-10-17T20:38:40.516Z,55.07
2022-10-17T20:41:13.636Z,54.76
2022-10-17T20:43:46.506Z,54.09
2022-10-17T20:46:35.086Z,53.80
2022-10-17T20:48:52.663Z,54.48
2022-10-17T20:51:25.494Z,54.61
2022-10-17T20:53:58.587Z,54.80
2022-10-17T20:56:31.510Z,54.94
2022-10-17T20:59:04.704Z,54.87
2022-10-17T21:01:37.941Z,54.77
2022-10-17T21:04:40.652Z,54.94
2022-10-17T21:06:43.861Z,54.89
2022-10-17T21:09:16.792Z,54.91
2022-10-17T21:11:49.940Z,54.89
2022-10-17T21:14:22.921Z,54.88
2022-10-17T21:16:57.328Z,55.00
2022-10-17T21:19:28.948Z,55.08
2022-10-17T21:22:01.907Z,55.05
2022-10-17T21:24:34.904Z,55.18
2022-10-17T21:27:07.810Z,55.23
2022-10-17T21:29:40.889Z,55.10
2022-10-17T21:32:25.237Z,55.16
2022-10-17T21:34:46.952Z,55.05
2022-10-17T21:37:19.955Z,55.22
2022-10-17T21:39:52.912Z,55.39
2022-10-17T21:42:25.963Z,55.23
2022-10-17T21:44:58.863Z,55.20
2022-10-17T21:47:31.897Z,55.42
2022-10-17T21:50:04.963Z,55.63
2022-10-17T21:52:37.902Z,55.62
2022-10-17T21:55:13.939Z,55.48
2022-10-17T21:57:46.889Z,55.39
2022-10-17T22:00:20.007Z,55.57
2022-10-17T22:02:52.982Z,55.83
2022-10-17T22:05:25.996Z,55.69
2022-10-17T22:07:58.979Z,55.51
2022-10-17T22:10:31.887Z,55.61
2022-10-17T22:13:04.938Z,55.58
2022-10-17T22:15:37.916Z,55.67
2022-10-17T22:18:10.922Z,55.67
2022-10-17T22:20:43.835Z,55.64
2022-10-17T22:23:17.018Z,55.88
2022-10-17T22:25:49.920Z,56.03
2022-10-17T22:28:23.049Z,55.78
2022-10-17T22:30:56.044Z,55.83
2022-10-17T22:33:28.935Z,56.29
2022-10-17T22:36:01.774Z,56.33
2022-10-17T22:38:34.984Z,56.12
2022-10-17T22:41:08.025Z,56.19
2022-10-17T22:43:41.021Z,56.20
2022-10-17T22:46:13.975Z,56.09
2022-10-17T22:48:47.056Z,56.27
2022-10-17T22:53:55.967Z,56.10
2022-10-17T22:56:29.081Z,56.11
2022-10-17T22:59:02.157Z,55.97
2022-10-17T23:01:36.026Z,56.02
2022-10-17T23:04:08.920Z,55.92
2022-10-17T23:06:42.103Z,56.08
2022-10-17T23:09:15.039Z,56.10
2022-10-17T23:11:48.027Z,56.18
2022-10-17T23:14:21.100Z,56.13
2022-10-17T23:16:57.015Z,56.16
2022-10-17T23:19:30.093Z,56.19
2022-10-17T23:22:03.019Z,56.09
2022-10-17T23:24:36.113Z,56.33
2022-10-17T23:27:08.981Z,56.48
2022-10-17T23:29:42.089Z,56.48
2022-10-17T23:32:15.135Z,56.31
2022-10-17T23:34:48.063Z,56.40
2022-10-17T23:37:21.133Z,56.36
2022-10-17T23:39:54.011Z,56.42
2022-10-17T23:42:27.042Z,56.44
2022-10-17T23:45:00.053Z,56.42
2022-10-17T23:47:33.538Z,56.38
2022-10-17T23:50:06.025Z,56.38
2022-10-17T23:52:39.150Z,56.37
2022-10-17T23:55:12.033Z,56.29
2022-10-17T23:57:45.117Z,56.53
